createdAt,value
2023-04-26T00:01:29.988Z,2.87
2023-04-26T00:03:57.553Z,3.00
2023-04-26T00:06:24.148Z,3.33
2023-04-26T00:08:51.102Z,3.63
2023-04-26T00:11:17.641Z,2.53
2023-04-26T00:13:44.036Z,3.07
2023-04-26T00:16:10.575Z,3.07
2023-04-26T00:18:37.304Z,3.00
2023-04-26T00:21:03.926Z,3.13
2023-04-26T00:23:30.770Z,2.70
2023-04-26T00:25:57.373Z,2.63
2023-04-26T00:28:23.775Z,3.07
2023-04-26T00:30:51.181Z,3.00
2023-04-26T00:33:17.797Z,3.17
2023-04-26T00:35:44.392Z,3.23
2023-04-26T00:38:10.841Z,2.80
2023-04-26T00:40:37.462Z,2.90
2023-04-26T00:43:04.019Z,3.23
2023-04-26T00:45:31.274Z,3.33
2023-04-26T00:48:02.514Z,2.67
2023-04-26T00:50:31.130Z,3.23
2023-04-26T00:52:58.259Z,3.43
2023-04-26T00:55:27.150Z,2.97
2023-04-26T00:57:53.813Z,3.10
2023-04-26T01:00:20.481Z,3.50
2023-04-26T01:02:47.563Z,2.93
2023-04-26T01:05:14.580Z,2.83
2023-04-26T01:07:41.216Z,2.87
2023-04-26T01:10:09.962Z,2.70
2023-04-26T01:12:38.284Z,2.97
2023-04-26T01:15:05.790Z,3.03
2023-04-26T01:17:32.419Z,2.93
2023-04-26T01:19:59.010Z,3.30
2023-04-26T01:22:28.469Z,3.30
2023-04-26T01:24:56.368Z,3.57
2023-04-26T01:27:22.763Z,2.87
2023-04-26T01:29:50.237Z,3.13
2023-04-26T01:32:16.803Z,3.00
2023-04-26T01:34:43.274Z,2.80
2023-04-26T01:37:11.390Z,3.00
2023-04-26T01:39:37.809Z,2.93
2023-04-26T01:42:05.054Z,3.37
2023-04-26T01:44:32.102Z,3.47
2023-04-26T01:47:01.182Z,3.23
2023-04-26T01:49:27.781Z,3.40
2023-04-26T01:51:55.064Z,2.67
2023-04-26T01:54:23.506Z,3.30
2023-04-26T01:56:50.019Z,3.37
2023-04-26T01:59:16.441Z,3.10
2023-04-26T02:01:46.158Z,2.93
2023-04-26T02:04:12.832Z,2.83
2023-04-26T02:06:39.209Z,2.93
2023-04-26T02:09:05.892Z,3.30
2023-04-26T02:11:32.445Z,3.00
2023-04-26T02:13:59.030Z,2.67
2023-04-26T02:16:25.539Z,3.27
2023-04-26T02:18:53.521Z,4.03
2023-04-26T02:21:21.542Z,3.57
2023-04-26T02:23:48.299Z,2.87
2023-04-26T02:26:14.752Z,3.00
2023-04-26T02:28:43.285Z,3.17
2023-04-26T02:31:10.078Z,3.17
2023-04-26T02:33:36.665Z,3.40
2023-04-26T02:36:06.964Z,3.67
2023-04-26T02:38:37.002Z,2.80
2023-04-26T02:41:05.299Z,3.53
2023-04-26T02:43:32.930Z,3.23
2023-04-26T02:46:01.111Z,3.70
2023-04-26T02:48:27.617Z,3.37
2023-04-26T02:50:54.077Z,3.40
2023-04-26T02:53:20.866Z,3.17
2023-04-26T02:55:47.528Z,3.30
2023-04-26T02:58:14.072Z,3.53
2023-04-26T03:00:46.329Z,3.60
2023-04-26T03:03:13.610Z,3.57
2023-04-26T03:05:41.493Z,3.00
2023-04-26T03:08:07.974Z,3.43
2023-04-26T03:10:34.532Z,3.33
2023-04-26T03:13:01.094Z,3.90
2023-04-26T03:15:27.574Z,3.60
2023-04-26T03:17:54.209Z,3.40
2023-04-26T03:20:21.807Z,3.13
2023-04-26T03:22:48.573Z,4.00
2023-04-26T03:25:16.191Z,3.20
2023-04-26T03:27:43.128Z,3.90
2023-04-26T03:30:10.490Z,3.93
2023-04-26T03:32:38.907Z,3.77
2023-04-26T03:35:05.868Z,3.87
2023-04-26T03:37:32.809Z,3.23
2023-04-26T03:40:04.432Z,3.80
2023-04-26T03:42:32.133Z,3.83
2023-04-26T03:44:59.177Z,3.90
2023-04-26T03:47:25.804Z,4.53
2023-04-26T03:49:52.365Z,3.87
2023-04-26T03:52:19.748Z,4.07
2023-04-26T03:54:46.715Z,4.17
2023-04-26T03:57:13.371Z,4.07
2023-04-26T03:59:40.739Z,4.13
2023-04-26T04:02:07.167Z,4.27
2023-04-26T04:04:34.192Z,4.27
2023-04-26T04:07:00.903Z,4.33
2023-04-26T04:09:27.518Z,4.30
2023-04-26T04:11:54.502Z,4.90
2023-04-26T04:14:21.055Z,4.07
2023-04-26T04:16:47.556Z,4.53
2023-04-26T04:19:14.165Z,4.10
2023-04-26T04:21:43.558Z,4.57
2023-04-26T04:24:09.993Z,4.03
2023-04-26T04:26:36.879Z,4.80
2023-04-26T04:29:08.981Z,4.17
2023-04-26T04:31:37.288Z,4.83
2023-04-26T04:34:04.141Z,4.53
2023-04-26T04:36:31.249Z,4.43
2023-04-26T04:38:58.170Z,4.27
2023-04-26T04:41:24.983Z,4.07
2023-04-26T04:43:51.474Z,4.40
2023-04-26T04:46:17.994Z,4.47
2023-04-26T04:48:44.840Z,4.43
2023-04-26T04:51:11.918Z,4.37
2023-04-26T04:53:38.665Z,4.40
2023-04-26T04:56:05.945Z,4.37
2023-04-26T04:58:32.455Z,5.10
2023-04-26T05:01:02.220Z,4.00
2023-04-26T05:03:30.828Z,3.90
2023-04-26T05:05:57.594Z,4.90
2023-04-26T05:08:24.852Z,4.47
2023-04-26T05:10:51.949Z,5.10
2023-04-26T05:13:18.378Z,4.73
2023-04-26T05:15:44.790Z,4.73
2023-04-26T05:18:11.389Z,4.80
2023-04-26T05:20:38.929Z,4.57
2023-04-26T05:23:06.654Z,4.93
2023-04-26T05:25:37.099Z,4.50
2023-04-26T05:28:16.869Z,5.00
2023-04-26T05:31:11.389Z,4.60
2023-04-26T05:34:00.829Z,4.20
2023-04-26T05:36:35.599Z,5.10
2023-04-26T05:39:02.626Z,4.53
2023-04-26T05:41:29.229Z,4.60
2023-04-26T05:43:55.797Z,4.77
2023-04-26T05:46:22.822Z,4.80
2023-04-26T05:48:49.700Z,4.43
2023-04-26T05:51:16.335Z,5.00
2023-04-26T05:53:43.045Z,4.73
2023-04-26T05:56:09.670Z,4.90
2023-04-26T05:58:37.016Z,4.70
2023-04-26T06:01:04.335Z,4.73
2023-04-26T06:03:31.065Z,4.43
2023-04-26T06:05:59.261Z,4.90
2023-04-26T06:08:28.499Z,5.13
2023-04-26T06:10:55.580Z,4.70
2023-04-26T06:13:22.050Z,5.07
2023-04-26T06:15:48.674Z,4.90
2023-04-26T06:18:15.667Z,4.93
2023-04-26T06:20:42.135Z,4.43
2023-04-26T06:23:08.590Z,4.00
2023-04-26T06:25:37.053Z,4.33
2023-04-26T06:28:04.149Z,4.33
2023-04-26T06:30:31.266Z,3.80
2023-04-26T06:33:00.186Z,4.40
2023-04-26T06:35:29.308Z,4.20
2023-04-26T06:37:55.942Z,4.07
2023-04-26T06:40:22.945Z,4.00
2023-04-26T06:42:49.721Z,4.27
2023-04-26T06:45:16.980Z,3.80
2023-04-26T06:47:44.823Z,4.03
2023-04-26T06:50:12.880Z,4.03
2023-04-26T06:52:39.359Z,4.03
2023-04-26T06:55:07.009Z,3.73
2023-04-26T06:57:33.461Z,4.50
2023-04-26T07:00:00.029Z,4.60
2023-04-26T07:02:27.696Z,4.17
2023-04-26T07:04:54.529Z,3.83
2023-04-26T07:07:21.890Z,4.17
2023-04-26T07:09:48.567Z,3.57
2023-04-26T07:12:15.106Z,3.63
2023-04-26T07:14:43.159Z,4.23
2023-04-26T07:17:10.606Z,4.00
2023-04-26T07:19:37.152Z,3.63
2023-04-26T07:22:04.584Z,3.33
2023-04-26T07:24:31.023Z,3.33
2023-04-26T07:26:57.872Z,3.93
2023-04-26T07:29:24.320Z,3.60
2023-04-26T07:31:50.862Z,3.47
2023-04-26T07:34:17.309Z,3.30
2023-04-26T07:36:43.756Z,3.23
2023-04-26T07:39:11.623Z,3.50
2023-04-26T07:41:38.166Z,3.53
2023-04-26T07:44:04.757Z,3.93
2023-04-26T07:46:33.311Z,3.30
2023-04-26T07:48:59.949Z,3.00
2023-04-26T07:51:27.462Z,2.80
2023-04-26T07:53:55.713Z,2.80
2023-04-26T07:56:24.072Z,2.80
2023-04-26T07:58:50.830Z,2.87
2023-04-26T08:01:17.212Z,2.90
2023-04-26T08:03:43.997Z,2.60
2023-04-26T08:06:10.822Z,3.00
2023-04-26T08:08:45.591Z,3.30
2023-04-26T08:11:12.040Z,3.07
2023-04-26T08:13:38.581Z,3.27
2023-04-26T08:16:06.310Z,2.70
2023-04-26T08:18:33.521Z,2.77
2023-04-26T08:21:00.251Z,2.63
2023-04-26T08:23:28.386Z,2.87
2023-04-26T08:25:54.802Z,2.63
2023-04-26T08:28:21.556Z,2.43
2023-04-26T08:30:48.161Z,2.70
2023-04-26T08:33:14.748Z,2.40
2023-04-26T08:35:41.157Z,2.53
2023-04-26T08:38:07.563Z,2.70
2023-04-26T08:40:34.975Z,2.27
2023-04-26T08:43:02.148Z,2.50
2023-04-26T08:45:29.066Z,2.70
2023-04-26T08:48:09.053Z,2.50
2023-04-26T08:50:38.685Z,2.20
2023-04-26T08:53:05.971Z,2.23
2023-04-26T08:55:33.590Z,2.50
2023-04-26T08:58:02.244Z,2.87
2023-04-26T09:00:29.299Z,2.90
2023-04-26T09:02:55.977Z,2.83
2023-04-26T09:05:24.549Z,2.70
2023-04-26T09:07:56.381Z,2.43
2023-04-26T09:10:23.423Z,2.60
2023-04-26T09:12:53.631Z,2.83
2023-04-26T09:15:26.527Z,2.90
2023-04-26T09:17:53.663Z,3.23
2023-04-26T09:20:23.172Z,2.90
2023-04-26T09:22:54.631Z,2.70
2023-04-26T09:25:29.995Z,2.70
2023-04-26T09:27:58.010Z,2.50
2023-04-26T09:30:24.926Z,2.83
2023-04-26T09:32:58.049Z,2.83
2023-04-26T09:35:34.641Z,2.50
2023-04-26T09:38:10.489Z,2.67
2023-04-26T09:40:51.048Z,2.17
2023-04-26T09:43:19.388Z,2.53
2023-04-26T09:45:49.497Z,2.37
2023-04-26T09:48:30.137Z,2.90
2023-04-26T09:51:03.070Z,2.77
2023-04-26T09:53:37.029Z,2.90
2023-04-26T09:56:12.190Z,2.63
2023-04-26T09:58:58.109Z,3.30
2023-04-26T10:01:26.860Z,2.97
2023-04-26T10:03:57.970Z,2.90
2023-04-26T10:06:25.104Z,2.50
2023-04-26T10:08:51.941Z,2.70
2023-04-26T10:11:18.820Z,2.43
2023-04-26T10:13:45.578Z,2.50
2023-04-26T10:16:12.042Z,2.70
2023-04-26T10:18:38.508Z,2.37
2023-04-26T10:21:12.145Z,2.20
2023-04-26T10:23:39.614Z,2.20
2023-04-26T10:26:06.002Z,2.10
2023-04-26T10:28:44.607Z,2.13
2023-04-26T10:31:11.696Z,2.20
2023-04-26T10:33:38.398Z,2.70
2023-04-26T10:36:08.179Z,2.30
2023-04-26T10:38:40.015Z,2.50
2023-04-26T10:41:30.843Z,2.50
2023-04-26T10:43:59.929Z,2.50
2023-04-26T10:46:35.725Z,2.20
2023-04-26T10:49:19.853Z,2.60
2023-04-26T10:52:12.406Z,2.27
2023-04-26T10:54:52.659Z,2.77
2023-04-26T10:57:19.694Z,2.93
2023-04-26T11:00:13.649Z,2.93
2023-04-26T11:02:46.972Z,2.47
2023-04-26T11:05:44.511Z,2.47
2023-04-26T11:08:13.837Z,2.30
2023-04-26T11:10:40.967Z,2.50
2023-04-26T11:13:07.852Z,2.10
2023-04-26T11:15:35.232Z,2.50
2023-04-26T11:18:05.402Z,2.87
2023-04-26T11:20:32.814Z,2.57
2023-04-26T11:23:00.221Z,2.23
2023-04-26T11:25:29.136Z,2.60
2023-04-26T11:28:00.977Z,3.37
2023-04-26T11:30:32.108Z,2.70
2023-04-26T11:32:59.814Z,3.10
2023-04-26T11:35:27.790Z,3.23
2023-04-26T11:37:54.377Z,3.23
2023-04-26T11:40:21.689Z,3.07
2023-04-26T11:42:48.139Z,3.03
2023-04-26T11:45:17.655Z,3.00
2023-04-26T11:47:45.873Z,3.13
2023-04-26T11:50:12.955Z,2.77
2023-04-26T11:52:39.568Z,2.60
2023-04-26T11:55:07.198Z,2.87
2023-04-26T11:57:34.459Z,2.97
2023-04-26T12:00:14.875Z,2.80
2023-04-26T12:02:48.895Z,2.40
2023-04-26T12:05:32.332Z,2.80
2023-04-26T12:08:00.322Z,2.77
2023-04-26T12:10:32.409Z,3.00
2023-04-26T12:12:59.949Z,2.90
2023-04-26T12:15:31.458Z,3.10
2023-04-26T12:18:05.484Z,2.80
2023-04-26T12:20:35.655Z,2.90
2023-04-26T12:23:16.559Z,3.43
2023-04-26T12:25:53.456Z,3.57
2023-04-26T12:28:19.877Z,2.80
2023-04-26T12:30:46.378Z,2.73
2023-04-26T12:33:17.621Z,2.90
2023-04-26T12:35:44.598Z,2.80
2023-04-26T12:38:12.232Z,2.90
2023-04-26T12:40:39.138Z,2.37
2023-04-26T12:43:05.591Z,2.80
2023-04-26T12:45:32.212Z,2.77
2023-04-26T12:47:58.794Z,2.53
2023-04-26T12:50:25.739Z,2.80
2023-04-26T12:52:52.250Z,3.70
2023-04-26T12:55:19.809Z,3.13
2023-04-26T12:57:46.344Z,2.80
2023-04-26T13:00:16.914Z,3.37
2023-04-26T13:02:43.960Z,3.00
2023-04-26T13:05:10.553Z,2.93
2023-04-26T13:07:39.330Z,3.50
2023-04-26T13:10:07.394Z,2.80
2023-04-26T13:12:34.511Z,3.00
2023-04-26T13:15:01.141Z,3.40
2023-04-26T13:17:28.338Z,3.40
2023-04-26T13:19:54.843Z,3.20
2023-04-26T13:22:21.501Z,4.13
2023-04-26T13:24:48.226Z,3.80
2023-04-26T13:27:14.902Z,4.10
2023-04-26T13:29:41.952Z,3.77
2023-04-26T13:32:08.590Z,3.57
2023-04-26T13:34:35.065Z,4.00
2023-04-26T13:37:03.815Z,3.10
2023-04-26T13:39:31.023Z,4.67
2023-04-26T13:41:59.349Z,3.10
2023-04-26T13:44:26.908Z,3.57
2023-04-26T13:46:55.420Z,3.60
2023-04-26T13:49:22.993Z,4.00
2023-04-26T13:51:49.622Z,3.80
2023-04-26T13:54:17.270Z,3.87
2023-04-26T13:56:43.811Z,3.80
2023-04-26T13:59:10.226Z,3.60
2023-04-26T14:01:36.838Z,3.80
2023-04-26T14:04:04.859Z,3.37
2023-04-26T14:06:32.854Z,3.40
2023-04-26T14:08:59.538Z,3.20
2023-04-26T14:11:26.349Z,3.27
2023-04-26T14:13:56.152Z,4.20
2023-04-26T14:16:26.760Z,3.30
2023-04-26T14:18:53.313Z,4.60
2023-04-26T14:21:19.820Z,4.20
2023-04-26T14:23:46.251Z,6.73
2023-04-26T14:26:13.314Z,7.23
2023-04-26T14:28:41.022Z,5.00
2023-04-26T14:31:07.861Z,24.87
2023-04-26T14:33:35.172Z,6.80
2023-04-26T14:36:02.293Z,5.27
2023-04-26T14:38:28.783Z,4.43
2023-04-26T14:40:55.247Z,4.10
2023-04-26T14:43:21.848Z,4.00
2023-04-26T14:45:48.335Z,4.47
2023-04-26T14:48:15.251Z,3.80
2023-04-26T14:50:41.846Z,3.73
2023-04-26T14:53:08.523Z,3.43
2023-04-26T14:55:34.899Z,8.23
2023-04-26T14:58:02.378Z,19.77
2023-04-26T15:00:30.584Z,17.93
2023-04-26T15:02:57.224Z,19.00
2023-04-26T15:05:24.260Z,9.97
2023-04-26T15:07:51.983Z,9.23
2023-04-26T15:10:18.477Z,4.30
2023-04-26T15:12:44.978Z,3.20
2023-04-26T15:15:11.702Z,3.67
2023-04-26T15:17:38.201Z,3.60
2023-04-26T15:20:06.328Z,3.27
2023-04-26T15:22:35.254Z,4.33
2023-04-26T15:25:03.531Z,3.63
2023-04-26T15:27:29.930Z,3.53
2023-04-26T15:29:56.930Z,4.17
2023-04-26T15:32:23.405Z,3.67
2023-04-26T15:34:50.301Z,3.40
2023-04-26T15:37:17.129Z,3.43
2023-04-26T15:39:43.707Z,4.20
2023-04-26T15:42:11.070Z,4.40
2023-04-26T15:44:37.460Z,3.70
2023-04-26T15:47:03.986Z,4.07
2023-04-26T15:49:30.897Z,4.07
2023-04-26T15:51:57.420Z,5.90
2023-04-26T15:54:24.209Z,6.43
2023-04-26T15:56:50.655Z,4.40
2023-04-26T15:59:17.068Z,4.50
2023-04-26T16:01:43.595Z,4.10
2023-04-26T16:04:10.742Z,3.90
2023-04-26T16:06:37.395Z,3.67
2023-04-26T16:09:17.180Z,4.00
2023-04-26T16:11:51.243Z,4.50
2023-04-26T16:14:17.770Z,4.33
2023-04-26T16:16:45.850Z,4.00
2023-04-26T16:19:12.582Z,4.30
2023-04-26T16:21:40.170Z,4.30
2023-04-26T16:24:08.923Z,4.73
2023-04-26T16:26:35.617Z,6.77
2023-04-26T16:29:04.079Z,6.30
2023-04-26T16:31:31.926Z,5.63
2023-04-26T16:33:58.911Z,9.57
2023-04-26T16:36:27.225Z,7.77
2023-04-26T16:38:54.314Z,5.17
2023-04-26T16:41:20.987Z,4.60
2023-04-26T16:43:47.756Z,3.93
2023-04-26T16:46:14.259Z,4.37
2023-04-26T16:48:40.788Z,4.00
2023-04-26T16:51:07.971Z,4.20
2023-04-26T16:53:35.985Z,4.17
2023-04-26T16:56:02.827Z,4.70
2023-04-26T16:58:29.518Z,4.50
2023-04-26T17:00:56.296Z,3.87
2023-04-26T17:03:24.353Z,4.90
2023-04-26T17:05:51.436Z,3.93
2023-04-26T17:08:18.796Z,3.70
2023-04-26T17:10:46.875Z,3.80
2023-04-26T17:13:13.787Z,3.90
2023-04-26T17:15:41.355Z,3.80
2023-04-26T17:18:08.367Z,3.70
2023-04-26T17:20:35.448Z,3.40
2023-04-26T17:23:04.114Z,3.87
2023-04-26T17:25:30.914Z,3.73
2023-04-26T17:27:57.619Z,3.40
2023-04-26T17:30:24.110Z,3.30
2023-04-26T17:32:50.838Z,3.20
2023-04-26T17:35:17.543Z,3.10
2023-04-26T17:37:49.455Z,3.73
2023-04-26T17:40:17.344Z,3.93
2023-04-26T17:42:43.783Z,3.10
2023-04-26T17:45:13.393Z,3.23
2023-04-26T17:47:41.231Z,3.20
2023-04-26T17:50:08.090Z,3.23
2023-04-26T17:52:34.790Z,3.37
2023-04-26T17:55:02.428Z,3.67
2023-04-26T17:57:28.909Z,3.40
2023-04-26T17:59:55.420Z,3.50
2023-04-26T18:02:21.897Z,3.30
2023-04-26T18:04:48.551Z,3.77
2023-04-26T18:07:15.393Z,3.50
2023-04-26T18:09:41.859Z,3.63
2023-04-26T18:12:08.921Z,3.40
2023-04-26T18:14:35.389Z,4.47
2023-04-26T18:17:02.472Z,4.70
2023-04-26T18:19:29.002Z,4.77
2023-04-26T18:21:55.502Z,4.47
2023-04-26T18:24:21.869Z,4.37
2023-04-26T18:26:48.315Z,3.67
2023-04-26T18:29:14.938Z,4.20
2023-04-26T18:31:41.438Z,4.90
2023-04-26T18:34:10.267Z,4.47
2023-04-26T18:36:37.009Z,3.97
2023-04-26T18:39:04.557Z,4.17
2023-04-26T18:41:31.052Z,4.87
2023-04-26T18:43:57.913Z,4.37
2023-04-26T18:46:24.358Z,4.40
2023-04-26T18:48:51.235Z,5.00
2023-04-26T18:51:17.699Z,28.07
2023-04-26T18:53:44.629Z,20.23
2023-04-26T18:56:11.149Z,22.70
2023-04-26T18:58:37.587Z,14.87
2023-04-26T19:01:04.057Z,13.10
2023-04-26T19:03:30.914Z,10.00
2023-04-26T19:05:57.504Z,5.90
2023-04-26T19:08:25.261Z,4.83
2023-04-26T19:10:51.851Z,4.20
2023-04-26T19:13:18.620Z,4.30
2023-04-26T19:15:45.563Z,4.60
2023-04-26T19:18:12.016Z,5.47
2023-04-26T19:20:38.630Z,4.60
2023-04-26T19:23:06.057Z,4.83
2023-04-26T19:25:34.994Z,4.30
2023-04-26T19:28:02.609Z,4.63
2023-04-26T19:30:29.085Z,4.97
2023-04-26T19:32:55.623Z,4.77
2023-04-26T19:35:22.089Z,4.80
2023-04-26T19:37:48.926Z,4.93
2023-04-26T19:40:15.409Z,5.10
2023-04-26T19:42:41.877Z,5.47
2023-04-26T19:45:08.423Z,4.90
2023-04-26T19:47:35.020Z,3.97
2023-04-26T19:50:04.055Z,4.33
2023-04-26T19:52:30.694Z,4.20
2023-04-26T19:54:57.262Z,3.60
2023-04-26T19:57:23.734Z,4.27
2023-04-26T19:59:50.233Z,4.50
2023-04-26T20:02:16.794Z,3.83
2023-04-26T20:04:43.548Z,3.80
2023-04-26T20:07:11.125Z,4.13
2023-04-26T20:09:37.531Z,4.23
2023-04-26T20:12:04.293Z,4.33
2023-04-26T20:14:30.951Z,4.20
2023-04-26T20:17:02.066Z,3.77
2023-04-26T20:19:29.318Z,4.40
2023-04-26T20:21:56.480Z,4.13
2023-04-26T20:24:24.316Z,3.93
2023-04-26T20:26:51.157Z,3.63
2023-04-26T20:29:17.634Z,3.97
2023-04-26T20:31:44.122Z,4.10
2023-04-26T20:34:10.527Z,3.80
2023-04-26T20:36:36.952Z,3.67
2023-04-26T20:39:03.344Z,3.57
2023-04-26T20:41:29.988Z,3.70
2023-04-26T20:43:56.419Z,4.27
2023-04-26T20:46:22.931Z,4.57
2023-04-26T20:48:49.897Z,5.07
2023-04-26T20:51:16.500Z,4.77
2023-04-26T20:53:43.648Z,4.80
2023-04-26T20:56:10.346Z,4.33
2023-04-26T20:58:36.878Z,4.50
2023-04-26T21:03:32.836Z,4.60
2023-04-26T21:06:00.405Z,4.73
2023-04-26T21:08:27.579Z,4.73
2023-04-26T21:10:53.980Z,4.97
2023-04-26T21:13:20.398Z,5.00
2023-04-26T21:15:47.354Z,5.87
2023-04-26T21:18:13.838Z,5.33
2023-04-26T21:20:40.316Z,5.63
2023-04-26T21:23:06.844Z,5.00
2023-04-26T21:25:33.272Z,5.17
2023-04-26T21:27:59.976Z,5.70
2023-04-26T21:30:27.573Z,5.70
2023-04-26T21:32:54.021Z,6.10
2023-04-26T21:35:20.464Z,6.30
2023-04-26T21:37:46.958Z,5.70
2023-04-26T21:40:13.577Z,9.13
2023-04-26T21:42:40.661Z,6.80
2023-04-26T21:45:07.978Z,6.90
2023-04-26T21:47:34.529Z,6.03
2023-04-26T21:50:01.149Z,5.57
2023-04-26T21:52:27.726Z,5.40
2023-04-26T21:54:54.132Z,5.87
2023-04-26T21:57:23.906Z,5.47
2023-04-26T21:59:51.020Z,5.70
2023-04-26T22:02:17.612Z,5.60
2023-04-26T22:04:44.035Z,5.17
2023-04-26T22:07:10.408Z,5.17
2023-04-26T22:09:36.964Z,5.30
2023-04-26T22:12:03.703Z,5.23
2023-04-26T22:14:32.858Z,5.10
2023-04-26T22:16:59.296Z,5.07
2023-04-26T22:19:26.365Z,4.53
2023-04-26T22:21:55.622Z,5.40
2023-04-26T22:24:22.702Z,5.33
2023-04-26T22:26:49.346Z,5.30
2023-04-26T22:29:16.205Z,5.30
2023-04-26T22:31:42.660Z,6.13
2023-04-26T22:34:09.091Z,5.17
2023-04-26T22:36:35.604Z,5.23
2023-04-26T22:39:02.843Z,5.77
2023-04-26T22:41:29.228Z,4.90
2023-04-26T22:43:55.634Z,5.70
2023-04-26T22:46:22.067Z,5.53
2023-04-26T22:48:49.382Z,5.53
2023-04-26T22:51:15.961Z,6.07
2023-04-26T22:53:42.373Z,5.20
2023-04-26T22:56:08.868Z,5.90
2023-04-26T22:58:35.321Z,6.10
2023-04-26T23:01:02.723Z,5.80
2023-04-26T23:03:29.328Z,5.80
2023-04-26T23:05:55.967Z,6.40
2023-04-26T23:08:22.407Z,6.27
2023-04-26T23:10:49.147Z,5.40
2023-04-26T23:13:16.073Z,6.17
2023-04-26T23:15:42.450Z,6.20
2023-04-26T23:18:09.490Z,5.70
2023-04-26T23:20:36.057Z,5.70
2023-04-26T23:23:02.836Z,6.37
2023-04-26T23:25:29.241Z,6.07
2023-04-26T23:27:55.725Z,6.30
2023-04-26T23:30:22.246Z,6.23
2023-04-26T23:32:49.042Z,6.77
2023-04-26T23:35:15.513Z,6.53
2023-04-26T23:37:41.932Z,5.97
2023-04-26T23:40:10.213Z,6.47
2023-04-26T23:42:36.827Z,5.97
2023-04-26T23:45:04.429Z,5.80
2023-04-26T23:47:31.982Z,6.07
2023-04-26T23:49:58.828Z,5.87
2023-04-26T23:52:25.399Z,6.70
2023-04-26T23:54:51.811Z,5.13
2023-04-26T23:57:18.249Z,6.50
2023-04-26T23:59:44.691Z,6.30
